createdAt,value
2023-01-19T00:00:24.501Z,94.31
2023-01-19T00:02:51.213Z,94.32
2023-01-19T00:05:17.928Z,94.31
2023-01-19T00:07:45.648Z,93.88
2023-01-19T00:10:12.287Z,94.22
2023-01-19T00:12:39.094Z,94.49
2023-01-19T00:15:06.591Z,94.31
2023-01-19T00:17:33.485Z,94.61
2023-01-19T00:20:00.705Z,94.94
2023-01-19T00:22:27.593Z,94.81
2023-01-19T00:24:54.377Z,95.19
2023-01-19T00:27:21.357Z,94.84
2023-01-19T00:29:48.021Z,94.89
2023-01-19T00:32:17.174Z,94.81
2023-01-19T00:34:48.790Z,95.29
2023-01-19T00:37:16.696Z,95.71
2023-01-19T00:39:44.552Z,95.39
2023-01-19T00:42:30.752Z,95.72
2023-01-19T00:44:57.529Z,96.36
2023-01-19T00:47:24.483Z,96.93
2023-01-19T00:49:51.381Z,97.05
2023-01-19T00:52:18.548Z,97.31
2023-01-19T00:54:45.658Z,97.58
2023-01-19T00:57:12.748Z,97.66
2023-01-19T00:59:39.531Z,97.82
2023-01-19T01:02:06.295Z,97.78
2023-01-19T01:04:33.314Z,97.95
2023-01-19T01:07:00.027Z,98.09
2023-01-19T01:09:29.388Z,97.87
2023-01-19T01:11:56.177Z,97.84
2023-01-19T01:14:23.659Z,98.24
2023-01-19T01:16:50.744Z,98.27
2023-01-19T01:19:17.475Z,98.19
2023-01-19T01:21:44.928Z,97.76
2023-01-19T01:24:11.771Z,97.71
2023-01-19T01:26:38.944Z,97.58
2023-01-19T01:29:05.898Z,97.60
2023-01-19T01:31:32.786Z,97.38
2023-01-19T01:33:59.567Z,97.28
2023-01-19T01:36:31.080Z,97.39
2023-01-19T01:38:58.380Z,97.38
2023-01-19T01:43:54.200Z,97.21
2023-01-19T01:46:20.996Z,97.52
2023-01-19T01:48:52.154Z,97.77
2023-01-19T01:51:26.137Z,97.39
2023-01-19T01:54:20.806Z,97.33
2023-01-19T01:56:49.127Z,97.46
2023-01-19T01:59:29.869Z,97.61
2023-01-19T02:02:17.013Z,97.38
2023-01-19T02:04:50.491Z,97.19
2023-01-19T02:08:04.112Z,97.16
2023-01-19T02:10:50.357Z,97.17
2023-01-19T02:13:23.279Z,96.72
2023-01-19T02:15:55.009Z,96.76
2023-01-19T02:18:22.717Z,97.05
2023-01-19T02:21:08.584Z,96.82
2023-01-19T02:23:39.400Z,96.29
2023-01-19T02:26:07.324Z,96.33
2023-01-19T02:28:34.117Z,96.64
2023-01-19T02:31:00.988Z,96.91
2023-01-19T02:33:27.872Z,96.98
2023-01-19T02:35:54.654Z,96.71
2023-01-19T02:38:21.505Z,96.26
2023-01-19T02:40:48.369Z,96.43
2023-01-19T02:43:15.171Z,96.57
2023-01-19T02:45:43.318Z,96.58
2023-01-19T02:48:10.222Z,96.10
2023-01-19T02:50:38.407Z,95.99
2023-01-19T02:53:34.245Z,95.81
2023-01-19T02:56:24.923Z,95.74
2023-01-19T02:59:15.831Z,95.64
2023-01-19T03:02:01.940Z,95.27
2023-01-19T03:04:45.789Z,95.19
2023-01-19T03:07:28.220Z,95.15
2023-01-19T03:10:28.133Z,95.36
2023-01-19T03:13:16.947Z,95.18
2023-01-19T03:15:48.222Z,94.82
2023-01-19T03:18:16.199Z,94.88
2023-01-19T03:20:44.143Z,95.07
2023-01-19T03:23:11.841Z,95.24
2023-01-19T03:25:41.305Z,95.30
2023-01-19T03:28:08.159Z,95.53
2023-01-19T03:30:40.384Z,95.69
2023-01-19T03:33:16.575Z,95.75
2023-01-19T03:35:49.652Z,95.69
2023-01-19T03:38:17.416Z,96.07
2023-01-19T03:40:44.374Z,96.24
2023-01-19T03:43:11.166Z,96.19
2023-01-19T03:45:38.430Z,96.18
2023-01-19T03:48:05.857Z,96.39
2023-01-19T03:50:32.713Z,96.64
2023-01-19T03:53:08.738Z,96.68
2023-01-19T03:55:35.838Z,96.65
2023-01-19T03:58:02.696Z,96.95
2023-01-19T04:00:29.552Z,97.14
2023-01-19T04:02:56.445Z,97.34
2023-01-19T04:05:23.684Z,97.17
2023-01-19T04:07:51.795Z,97.33
2023-01-19T04:10:18.926Z,97.40
2023-01-19T04:12:45.884Z,97.52
2023-01-19T04:15:13.044Z,97.54
2023-01-19T04:17:40.056Z,97.35
2023-01-19T04:20:07.312Z,97.47
2023-01-19T04:22:35.418Z,97.66
2023-01-19T04:25:03.207Z,97.57
2023-01-19T04:27:30.021Z,97.49
2023-01-19T04:29:57.159Z,97.64
2023-01-19T04:32:24.037Z,97.93
2023-01-19T04:34:50.902Z,98.22
2023-01-19T04:37:17.900Z,98.03
2023-01-19T04:39:44.727Z,97.92
2023-01-19T04:42:11.629Z,98.07
2023-01-19T04:44:38.669Z,98.25
2023-01-19T04:47:05.586Z,98.17
2023-01-19T04:49:32.524Z,98.16
2023-01-19T04:51:59.606Z,98.37
2023-01-19T04:54:27.152Z,98.48
2023-01-19T04:56:54.050Z,98.39
2023-01-19T04:59:21.637Z,98.39
2023-01-19T05:01:48.476Z,98.60
2023-01-19T05:04:15.809Z,98.66
2023-01-19T05:06:42.592Z,98.49
2023-01-19T05:09:11.850Z,98.29
2023-01-19T05:11:38.933Z,98.57
2023-01-19T05:14:05.967Z,98.73
2023-01-19T05:16:33.809Z,98.36
2023-01-19T05:19:00.694Z,98.09
2023-01-19T05:21:28.339Z,98.12
2023-01-19T05:23:55.161Z,98.54
2023-01-19T05:26:22.097Z,98.68
2023-01-19T05:28:50.439Z,98.24
2023-01-19T05:31:18.763Z,97.96
2023-01-19T05:33:46.448Z,97.56
2023-01-19T05:36:13.472Z,97.50
2023-01-19T05:38:40.425Z,97.44
2023-01-19T05:41:07.271Z,97.09
2023-01-19T05:43:34.206Z,96.35
2023-01-19T05:46:01.115Z,95.97
2023-01-19T05:48:28.116Z,95.76
2023-01-19T05:50:58.186Z,95.48
2023-01-19T05:53:25.459Z,95.32
2023-01-19T05:55:52.502Z,95.35
2023-01-19T05:58:19.377Z,95.60
2023-01-19T06:00:46.116Z,96.05
2023-01-19T06:03:13.445Z,96.41
2023-01-19T06:05:40.592Z,96.28
2023-01-19T06:08:07.414Z,95.78
2023-01-19T06:10:34.702Z,96.31
2023-01-19T06:13:01.891Z,96.89
2023-01-19T06:15:29.898Z,96.94
2023-01-19T06:17:56.735Z,96.29
2023-01-19T06:20:23.598Z,96.02
2023-01-19T06:22:50.435Z,95.94
2023-01-19T06:25:17.389Z,96.15
2023-01-19T06:27:45.260Z,96.00
2023-01-19T06:30:13.771Z,95.65
2023-01-19T06:32:40.596Z,95.18
2023-01-19T06:35:08.154Z,95.48
2023-01-19T06:37:35.272Z,95.38
2023-01-19T06:40:02.723Z,95.50
2023-01-19T06:42:29.835Z,95.19
2023-01-19T06:44:56.733Z,94.80
2023-01-19T06:47:23.678Z,95.35
2023-01-19T06:49:50.602Z,95.24
2023-01-19T06:52:18.592Z,95.31
2023-01-19T06:54:46.252Z,95.26
2023-01-19T06:57:14.558Z,95.48
2023-01-19T06:59:41.449Z,95.82
2023-01-19T07:02:26.141Z,96.57
2023-01-19T07:04:56.338Z,96.91
2023-01-19T07:07:23.388Z,96.75
2023-01-19T07:09:53.794Z,96.82
2023-01-19T07:12:22.151Z,97.01
2023-01-19T07:14:49.755Z,97.23
2023-01-19T07:17:19.544Z,97.22
2023-01-19T07:19:46.983Z,96.91
2023-01-19T07:22:13.916Z,96.78
2023-01-19T07:24:41.523Z,96.78
2023-01-19T07:27:08.688Z,97.26
2023-01-19T07:29:35.471Z,97.42
2023-01-19T07:32:02.301Z,97.57
2023-01-19T07:34:29.549Z,98.08
2023-01-19T07:36:56.579Z,98.69
2023-01-19T07:39:23.472Z,98.81
2023-01-19T07:41:50.689Z,98.93
2023-01-19T07:44:18.154Z,98.93
2023-01-19T07:46:44.987Z,99.14
2023-01-19T07:49:12.742Z,98.96
2023-01-19T07:51:39.630Z,99.03
2023-01-19T07:54:08.787Z,99.26
2023-01-19T07:56:35.962Z,99.36
2023-01-19T07:59:02.746Z,99.21
2023-01-19T08:01:29.962Z,99.02
2023-01-19T08:04:45.656Z,98.90
2023-01-19T08:07:12.535Z,99.27
2023-01-19T08:09:39.467Z,99.21
2023-01-19T08:12:06.343Z,98.92
2023-01-19T08:14:34.433Z,98.62
2023-01-19T08:17:01.897Z,98.66
2023-01-19T08:19:28.788Z,98.77
2023-01-19T08:21:56.546Z,98.37
2023-01-19T08:24:25.566Z,98.23
2023-01-19T08:26:55.992Z,98.41
2023-01-19T08:29:22.766Z,98.59
2023-01-19T08:31:49.777Z,98.19
2023-01-19T08:34:16.738Z,97.02
2023-01-19T08:36:43.556Z,97.22
2023-01-19T08:39:12.362Z,96.44
2023-01-19T08:41:39.306Z,96.16
2023-01-19T08:44:06.242Z,96.16
2023-01-19T08:46:33.135Z,96.57
2023-01-19T08:49:00.031Z,96.97
2023-01-19T08:51:26.995Z,96.96
2023-01-19T08:53:53.839Z,96.73
2023-01-19T08:56:20.910Z,96.84
2023-01-19T08:58:59.447Z,97.03
2023-01-19T09:01:34.519Z,97.57
2023-01-19T09:04:01.473Z,97.77
2023-01-19T09:06:28.491Z,97.71
2023-01-19T09:08:55.264Z,98.21
2023-01-19T09:11:22.116Z,98.61
2023-01-19T09:13:49.178Z,98.59
2023-01-19T09:16:16.264Z,98.84
2023-01-19T09:18:43.138Z,99.18
2023-01-19T09:21:09.985Z,99.45
2023-01-19T09:23:36.821Z,99.12
2023-01-19T09:26:04.494Z,98.78
2023-01-19T09:28:31.335Z,98.95
2023-01-19T09:30:58.583Z,99.36
2023-01-19T09:33:25.527Z,99.21
2023-01-19T09:35:52.415Z,99.06
2023-01-19T09:38:20.131Z,98.96
2023-01-19T09:40:52.604Z,99.35
2023-01-19T09:43:31.539Z,99.69
2023-01-19T09:45:59.114Z,99.90
2023-01-19T09:48:30.854Z,99.82
2023-01-19T09:51:02.163Z,99.95
2023-01-19T09:53:45.617Z,100.00
2023-01-19T09:56:14.572Z,99.88
2023-01-19T09:58:41.835Z,99.83
2023-01-19T10:01:22.899Z,100.00
2023-01-19T10:03:50.610Z,100.00
2023-01-19T10:06:17.458Z,100.00
2023-01-19T10:08:52.761Z,100.00
2023-01-19T10:11:52.561Z,100.00
2023-01-19T10:14:34.441Z,100.00
2023-01-19T10:17:36.076Z,100.00
2023-01-19T10:20:03.936Z,100.00
2023-01-19T10:22:30.781Z,100.00
2023-01-19T10:25:02.203Z,100.00
2023-01-19T10:27:30.767Z,100.00
2023-01-19T10:29:58.241Z,100.00
2023-01-19T10:32:46.825Z,100.00
2023-01-19T10:35:23.430Z,100.00
2023-01-19T10:37:56.500Z,100.00
2023-01-19T10:40:27.906Z,100.00
2023-01-19T10:42:54.802Z,100.00
2023-01-19T10:45:24.249Z,100.00
2023-01-19T10:47:53.279Z,100.00
2023-01-19T10:50:37.841Z,100.00
2023-01-19T10:53:06.270Z,100.00
2023-01-19T10:55:38.281Z,100.00
2023-01-19T10:58:06.566Z,100.00
2023-01-19T11:00:39.169Z,100.00
2023-01-19T11:03:40.412Z,100.00
2023-01-19T11:06:15.866Z,100.00
2023-01-19T11:08:44.536Z,100.00
2023-01-19T11:11:12.610Z,100.00
2023-01-19T11:13:40.174Z,100.00
2023-01-19T11:16:23.133Z,100.00
2023-01-19T11:18:51.952Z,100.00
2023-01-19T11:21:18.759Z,100.00
2023-01-19T11:23:47.394Z,100.00
2023-01-19T11:26:24.997Z,100.00
2023-01-19T11:28:54.727Z,100.00
2023-01-19T11:31:27.830Z,100.00
2023-01-19T11:33:56.983Z,100.00
2023-01-19T11:36:36.985Z,100.00
2023-01-19T11:39:24.434Z,100.00
2023-01-19T11:41:53.635Z,100.00
2023-01-19T11:44:33.688Z,100.00
2023-01-19T11:47:02.553Z,100.00
2023-01-19T11:49:40.587Z,100.00
2023-01-19T11:52:21.359Z,100.00
2023-01-19T11:54:53.310Z,100.00
2023-01-19T11:57:20.905Z,100.00
2023-01-19T11:59:47.797Z,100.00
2023-01-19T12:02:31.269Z,100.00
2023-01-19T12:05:00.402Z,100.00
2023-01-19T12:07:30.430Z,100.00
2023-01-19T12:10:06.159Z,100.00
2023-01-19T12:12:35.306Z,100.00
2023-01-19T12:15:08.342Z,100.00
2023-01-19T12:17:37.032Z,100.00
2023-01-19T12:20:07.343Z,100.00
2023-01-19T12:22:39.092Z,100.00
2023-01-19T12:25:22.898Z,100.00
2023-01-19T12:27:49.749Z,100.00
2023-01-19T12:30:21.465Z,100.00
2023-01-19T12:32:48.398Z,100.00
2023-01-19T12:35:53.105Z,100.00
2023-01-19T12:38:40.803Z,100.00
2023-01-19T12:41:26.571Z,100.00
2023-01-19T12:44:12.096Z,100.00
2023-01-19T12:46:43.031Z,100.00
2023-01-19T12:49:38.136Z,100.00
2023-01-19T12:52:20.555Z,100.00
2023-01-19T12:54:55.049Z,100.00
2023-01-19T12:57:48.109Z,100.00
2023-01-19T13:00:24.135Z,100.00
2023-01-19T13:03:17.392Z,100.00
2023-01-19T13:05:44.183Z,100.00
2023-01-19T13:08:13.915Z,100.00
2023-01-19T13:10:59.207Z,100.00
2023-01-19T13:13:38.731Z,100.00
2023-01-19T13:16:21.277Z,100.00
2023-01-19T13:18:53.383Z,100.00
2023-01-19T13:21:39.701Z,100.00
2023-01-19T13:24:15.038Z,100.00
2023-01-19T13:27:00.342Z,100.00
2023-01-19T13:29:38.085Z,100.00
2023-01-19T13:32:07.070Z,100.00
2023-01-19T13:34:47.037Z,100.00
2023-01-19T13:37:26.125Z,100.00
2023-01-19T13:39:53.912Z,100.00
2023-01-19T13:42:32.974Z,100.00
2023-01-19T13:45:37.017Z,100.00
2023-01-19T13:48:08.852Z,100.00
2023-01-19T13:50:40.083Z,100.00
2023-01-19T13:53:20.729Z,100.00
2023-01-19T13:55:50.422Z,100.00
2023-01-19T13:58:23.576Z,100.00
2023-01-19T14:01:58.147Z,100.00
2023-01-19T14:04:25.983Z,100.00
2023-01-19T14:06:55.780Z,100.00
2023-01-19T14:09:23.111Z,100.00
2023-01-19T14:12:14.083Z,100.00
2023-01-19T14:14:42.385Z,100.00
2023-01-19T14:17:27.050Z,100.00
2023-01-19T14:19:57.671Z,100.00
2023-01-19T14:22:57.188Z,100.00
2023-01-19T14:25:28.231Z,100.00
2023-01-19T14:28:29.906Z,100.00
2023-01-19T14:31:01.265Z,100.00
2023-01-19T14:33:46.114Z,100.00
2023-01-19T14:36:28.361Z,100.00
2023-01-19T14:38:57.221Z,100.00
2023-01-19T14:41:49.234Z,100.00
2023-01-19T14:44:22.824Z,100.00
2023-01-19T14:46:49.615Z,100.00
2023-01-19T14:49:30.767Z,100.00
2023-01-19T14:51:57.695Z,100.00
2023-01-19T14:54:38.901Z,100.00
2023-01-19T14:57:10.001Z,100.00
2023-01-19T14:59:36.797Z,100.00
2023-01-19T15:02:03.887Z,100.00
2023-01-19T15:04:30.753Z,100.00
2023-01-19T15:06:57.551Z,100.00
2023-01-19T15:09:24.408Z,100.00
2023-01-19T15:11:51.474Z,100.00
2023-01-19T15:14:19.064Z,100.00
2023-01-19T15:16:45.918Z,100.00
2023-01-19T15:19:13.658Z,100.00
2023-01-19T15:21:45.260Z,100.00
2023-01-19T15:24:13.011Z,100.00
2023-01-19T15:26:41.395Z,100.00
2023-01-19T15:29:16.100Z,100.00
2023-01-19T15:31:49.658Z,100.00
2023-01-19T15:34:20.250Z,100.00
2023-01-19T15:36:47.061Z,100.00
2023-01-19T15:39:13.809Z,100.00
2023-01-19T15:41:40.715Z,100.00
2023-01-19T15:44:10.285Z,100.00
2023-01-19T15:46:37.430Z,100.00
2023-01-19T15:49:05.875Z,100.00
2023-01-19T15:51:33.216Z,100.00
2023-01-19T15:54:00.018Z,100.00
2023-01-19T15:56:29.785Z,100.00
2023-01-19T15:58:58.151Z,100.00
2023-01-19T16:01:34.018Z,100.00
2023-01-19T16:04:05.446Z,100.00
2023-01-19T16:06:33.479Z,100.00
2023-01-19T16:09:01.636Z,100.00
2023-01-19T16:11:29.927Z,100.00
2023-01-19T16:13:56.719Z,100.00
2023-01-19T16:16:24.522Z,100.00
2023-01-19T16:18:51.515Z,100.00
2023-01-19T16:21:18.387Z,100.00
2023-01-19T16:23:45.141Z,100.00
2023-01-19T16:26:26.776Z,100.00
2023-01-19T16:28:56.786Z,100.00
2023-01-19T16:31:25.158Z,100.00
2023-01-19T16:33:51.927Z,100.00
2023-01-19T16:36:25.770Z,100.00
2023-01-19T16:38:52.803Z,100.00
2023-01-19T16:41:19.675Z,100.00
2023-01-19T16:43:51.936Z,100.00
2023-01-19T16:46:26.816Z,100.00
2023-01-19T16:48:53.943Z,100.00
2023-01-19T16:51:20.973Z,100.00
2023-01-19T16:53:49.797Z,100.00
2023-01-19T16:56:16.801Z,99.90
2023-01-19T16:58:43.877Z,99.85
2023-01-19T17:01:18.249Z,100.00
2023-01-19T17:03:47.231Z,99.99
2023-01-19T17:06:15.684Z,99.94
2023-01-19T17:08:42.648Z,99.93
2023-01-19T17:11:11.437Z,99.93
2023-01-19T17:13:38.701Z,99.93
2023-01-19T17:16:05.999Z,99.92
2023-01-19T17:18:34.189Z,99.62
2023-01-19T17:21:05.832Z,99.84
2023-01-19T17:23:32.741Z,99.69
2023-01-19T17:25:59.637Z,99.61
2023-01-19T17:28:26.459Z,99.31
2023-01-19T17:30:53.649Z,99.50
2023-01-19T17:33:24.897Z,99.58
2023-01-19T17:35:51.958Z,99.47
2023-01-19T17:38:18.792Z,99.35
2023-01-19T17:40:45.760Z,99.75
2023-01-19T17:43:12.555Z,99.86
2023-01-19T17:45:39.421Z,99.97
2023-01-19T17:48:07.181Z,100.00
2023-01-19T17:50:34.796Z,100.00
2023-01-19T17:53:01.904Z,100.00
2023-01-19T17:55:29.044Z,100.00
2023-01-19T17:57:55.884Z,100.00
2023-01-19T18:00:23.002Z,100.00
2023-01-19T18:02:51.597Z,100.00
2023-01-19T18:05:18.899Z,100.00
2023-01-19T18:07:46.514Z,100.00
2023-01-19T18:10:13.832Z,100.00
2023-01-19T18:12:41.063Z,100.00
2023-01-19T18:15:09.565Z,100.00
2023-01-19T18:17:36.575Z,100.00
2023-01-19T18:20:04.756Z,100.00
2023-01-19T18:22:32.464Z,100.00
2023-01-19T18:24:59.654Z,100.00
2023-01-19T18:27:26.659Z,100.00
2023-01-19T18:29:54.265Z,99.99
2023-01-19T18:32:21.745Z,99.92
2023-01-19T18:34:48.866Z,99.88
2023-01-19T18:37:15.889Z,99.72
2023-01-19T18:39:42.789Z,99.40
2023-01-19T18:42:09.828Z,99.43
2023-01-19T18:44:36.687Z,99.47
2023-01-19T18:47:03.609Z,99.12
2023-01-19T18:49:30.419Z,98.90
2023-01-19T18:51:58.006Z,98.86
2023-01-19T18:54:25.351Z,99.07
2023-01-19T18:56:52.702Z,98.86
2023-01-19T18:59:19.666Z,98.96
2023-01-19T19:01:46.696Z,99.02
2023-01-19T19:04:13.722Z,98.86
2023-01-19T19:06:40.620Z,98.54
2023-01-19T19:09:07.562Z,99.04
2023-01-19T19:11:34.498Z,99.13
2023-01-19T19:14:01.872Z,99.09
2023-01-19T19:16:29.758Z,99.17
2023-01-19T19:18:56.978Z,99.21
2023-01-19T19:21:27.722Z,99.06
2023-01-19T19:23:55.984Z,99.14
2023-01-19T19:26:23.341Z,98.97
2023-01-19T19:28:50.273Z,98.80
2023-01-19T19:31:20.758Z,98.86
2023-01-19T19:33:48.829Z,98.82
2023-01-19T19:36:16.168Z,98.56
2023-01-19T19:38:44.555Z,98.72
2023-01-19T19:41:12.943Z,98.89
2023-01-19T19:43:40.536Z,98.58
2023-01-19T19:46:09.020Z,98.60
2023-01-19T19:48:38.897Z,98.77
2023-01-19T19:51:18.042Z,98.60
2023-01-19T19:53:46.465Z,98.60
2023-01-19T19:56:13.634Z,98.74
2023-01-19T19:58:41.860Z,98.89
2023-01-19T20:01:09.705Z,98.51
2023-01-19T20:03:36.892Z,98.75
2023-01-19T20:06:05.461Z,98.82
2023-01-19T20:08:32.606Z,99.12
2023-01-19T20:11:09.908Z,98.67
2023-01-19T20:13:37.562Z,98.80
2023-01-19T20:16:06.291Z,99.14
2023-01-19T20:18:34.120Z,99.12
2023-01-19T20:21:01.002Z,99.09
2023-01-19T20:23:28.099Z,99.27
2023-01-19T20:25:54.885Z,99.23
2023-01-19T20:28:21.686Z,99.12
2023-01-19T20:30:48.714Z,98.97
2023-01-19T20:33:15.986Z,99.00
2023-01-19T20:35:43.036Z,99.31
2023-01-19T20:38:10.048Z,99.02
2023-01-19T20:40:37.031Z,99.42
2023-01-19T20:43:03.869Z,99.64
2023-01-19T20:45:30.952Z,99.29
2023-01-19T20:47:57.965Z,99.33
2023-01-19T20:50:24.807Z,99.40
2023-01-19T20:52:51.854Z,99.59
2023-01-19T20:55:19.208Z,99.62
2023-01-19T20:57:46.257Z,99.62
2023-01-19T21:00:13.921Z,99.74
2023-01-19T21:02:40.784Z,99.60
2023-01-19T21:05:08.602Z,99.68
2023-01-19T21:07:35.774Z,99.54
2023-01-19T21:10:02.721Z,99.73
2023-01-19T21:12:29.560Z,99.57
2023-01-19T21:14:56.504Z,99.68
2023-01-19T21:17:23.352Z,99.80
2023-01-19T21:19:50.392Z,99.91
2023-01-19T21:22:17.359Z,99.57
2023-01-19T21:24:44.641Z,99.91
2023-01-19T21:27:11.674Z,99.92
2023-01-19T21:29:38.582Z,99.83
2023-01-19T21:32:06.004Z,99.96
2023-01-19T21:34:33.014Z,100.00
2023-01-19T21:36:59.935Z,99.93
2023-01-19T21:39:26.757Z,99.95
2023-01-19T21:41:53.845Z,100.00
2023-01-19T21:44:20.662Z,100.00
2023-01-19T21:46:47.409Z,100.00
2023-01-19T21:49:18.508Z,100.00
2023-01-19T21:51:47.770Z,99.94
2023-01-19T21:54:15.012Z,99.94
2023-01-19T21:56:43.491Z,99.98
2023-01-19T21:59:12.409Z,100.00
2023-01-19T22:01:39.184Z,100.00
2023-01-19T22:04:06.265Z,100.00
2023-01-19T22:06:33.313Z,100.00
2023-01-19T22:09:00.877Z,100.00
2023-01-19T22:11:28.028Z,100.00
2023-01-19T22:13:55.144Z,100.00
2023-01-19T22:16:22.733Z,100.00
2023-01-19T22:18:51.625Z,99.97
2023-01-19T22:21:20.185Z,99.98
2023-01-19T22:23:51.239Z,100.00
2023-01-19T22:26:18.396Z,100.00
2023-01-19T22:28:45.461Z,99.93
2023-01-19T22:31:16.938Z,99.98
2023-01-19T22:33:43.966Z,99.85
2023-01-19T22:36:14.216Z,99.95
2023-01-19T22:38:41.135Z,99.88
2023-01-19T22:41:37.873Z,99.96
2023-01-19T22:44:07.456Z,99.88
2023-01-19T22:46:35.304Z,99.96
2023-01-19T22:49:02.175Z,99.95
2023-01-19T22:51:29.617Z,99.96
2023-01-19T22:53:56.522Z,99.82
2023-01-19T22:56:29.784Z,99.96
2023-01-19T22:58:56.823Z,99.82
2023-01-19T23:01:25.644Z,99.68
2023-01-19T23:03:53.724Z,99.74
2023-01-19T23:06:25.238Z,99.75
2023-01-19T23:08:52.169Z,99.50
2023-01-19T23:11:20.853Z,99.68
2023-01-19T23:13:48.524Z,99.63
2023-01-19T23:16:15.353Z,99.61
2023-01-19T23:18:42.318Z,99.69
2023-01-19T23:21:17.280Z,99.75
2023-01-19T23:23:44.379Z,99.73
2023-01-19T23:26:13.293Z,99.44
2023-01-19T23:28:40.461Z,99.22
2023-01-19T23:31:23.785Z,99.57
2023-01-19T23:33:53.291Z,99.16
2023-01-19T23:36:20.448Z,99.28
2023-01-19T23:38:51.871Z,99.70
2023-01-19T23:41:19.198Z,99.09
2023-01-19T23:43:45.971Z,99.28
2023-01-19T23:46:13.245Z,99.31
2023-01-19T23:48:40.168Z,99.16
2023-01-19T23:51:08.226Z,98.91
2023-01-19T23:53:35.643Z,98.79
2023-01-19T23:56:12.429Z,98.65
2023-01-19T23:58:39.403Z,98.77
